createdAt,value
2023-02-22T00:04:11.472Z,34.6
2023-02-22T00:10:17.454Z,34.6
2023-02-22T00:16:23.259Z,34.5
2023-02-22T00:22:28.383Z,34.5
2023-02-22T00:28:33.304Z,34.5
2023-02-22T00:34:38.510Z,34.5
2023-02-22T00:40:43.938Z,34.4
2023-02-22T00:46:48.883Z,34.4
2023-02-22T00:52:54.208Z,34.4
2023-02-22T00:58:59.771Z,34.4
2023-02-22T01:05:05.544Z,34.3
2023-02-22T01:11:10.704Z,34.3
2023-02-22T01:17:16.284Z,34.3
2023-02-22T01:23:21.230Z,34.3
2023-02-22T01:29:26.810Z,34.2
2023-02-22T01:35:32.590Z,34.2
2023-02-22T01:41:37.834Z,34.2
2023-02-22T01:47:43.352Z,34.2
2023-02-22T01:53:48.350Z,34.2
2023-02-22T01:59:53.652Z,34.1
2023-02-22T02:05:59.219Z,34.1
2023-02-22T02:12:04.583Z,34.1
2023-02-22T02:18:09.743Z,34
2023-02-22T02:24:15.315Z,34
2023-02-22T02:30:20.773Z,33.9
2023-02-22T02:36:26.459Z,33.9
2023-02-22T02:42:31.686Z,33.9
2023-02-22T02:48:36.836Z,33.8
2023-02-22T02:54:42.344Z,33.8
2023-02-22T03:00:47.934Z,33.8
2023-02-22T03:06:53.707Z,33.8
2023-02-22T03:12:59.274Z,33.7
2023-02-22T03:19:04.655Z,33.7
2023-02-22T03:25:10.008Z,33.7
2023-02-22T03:31:15.578Z,33.7
2023-02-22T03:37:20.956Z,33.7
2023-02-22T03:43:25.586Z,33.7
2023-02-22T03:49:31.278Z,33.7
2023-02-22T03:55:36.242Z,33.7
2023-02-22T04:01:41.466Z,33.6
2023-02-22T04:07:46.621Z,33.7
2023-02-22T04:13:51.919Z,33.7
2023-02-22T04:19:57.354Z,33.7
2023-02-22T04:26:02.525Z,33.6
2023-02-22T04:32:07.834Z,33.6
2023-02-22T04:38:12.627Z,33.6
2023-02-22T04:44:17.927Z,33.5
2023-02-22T04:50:22.736Z,33.6
2023-02-22T04:56:27.526Z,33.6
2023-02-22T05:02:32.891Z,33.5
2023-02-22T05:08:38.297Z,33.6
2023-02-22T05:14:43.321Z,33.6
2023-02-22T05:20:48.491Z,33.7
2023-02-22T05:26:53.661Z,33.4
2023-02-22T05:32:58.417Z,33.5
2023-02-22T05:39:03.838Z,33.3
2023-02-22T05:45:09.348Z,33.3
2023-02-22T05:51:14.659Z,33.2
2023-02-22T05:57:20.365Z,33.3
2023-02-22T06:03:25.328Z,33.2
2023-02-22T06:09:30.414Z,33.4
2023-02-22T06:15:35.778Z,33.4
2023-02-22T06:21:40.996Z,33.2
2023-02-22T06:27:45.896Z,33.1
2023-02-22T06:33:51.053Z,33.3
2023-02-22T06:39:55.700Z,33.1
2023-02-22T06:46:00.936Z,33.3
2023-02-22T06:52:06.408Z,33.1
2023-02-22T06:58:11.964Z,33
2023-02-22T07:04:17.339Z,33
2023-02-22T07:10:22.144Z,33.1
2023-02-22T07:16:28.113Z,33.2
2023-02-22T07:22:33.188Z,33.1
2023-02-22T07:28:38.381Z,33.4
2023-02-22T07:34:44.339Z,33.1
2023-02-22T07:40:50.094Z,33.3
2023-02-22T07:46:55.346Z,33.3
2023-02-22T07:53:01.456Z,33.4
2023-02-22T07:59:07.429Z,33.2
2023-02-22T08:05:13.060Z,33.4
2023-02-22T08:11:19.290Z,33.2
2023-02-22T08:17:24.849Z,33.3
2023-02-22T08:23:30.332Z,33.4
2023-02-22T08:29:35.907Z,33.4
2023-02-22T08:35:41.077Z,33.5
2023-02-22T08:41:46.231Z,33.5
2023-02-22T08:47:51.817Z,33.4
2023-02-22T08:53:56.812Z,33.3
2023-02-22T09:00:02.004Z,33.4
2023-02-22T09:06:07.601Z,33.3
2023-02-22T09:12:13.101Z,33.4
2023-02-22T09:18:18.182Z,33.3
2023-02-22T09:24:23.291Z,33.2
2023-02-22T09:30:28.808Z,33.2
2023-02-22T09:36:34.337Z,33.2
2023-02-22T09:42:39.968Z,33.1
2023-02-22T09:48:45.121Z,33.2
2023-02-22T09:54:51.446Z,33.2
2023-02-22T10:00:56.902Z,33
2023-02-22T10:07:02.065Z,33.1
2023-02-22T10:13:07.195Z,33.1
2023-02-22T10:19:12.712Z,33
2023-02-22T10:25:17.917Z,33
2023-02-22T10:31:24.433Z,33
2023-02-22T10:37:30.488Z,32.9
2023-02-22T10:43:35.823Z,33
2023-02-22T10:49:41.289Z,33
2023-02-22T10:55:47.174Z,32.7
2023-02-22T11:01:53.160Z,32.7
2023-02-22T11:07:58.623Z,32.7
2023-02-22T11:14:03.887Z,32.7
2023-02-22T11:20:08.706Z,32.7
2023-02-22T11:26:14.065Z,32.7
2023-02-22T11:32:19.440Z,32.7
2023-02-22T11:38:24.928Z,32.7
2023-02-22T11:44:30.193Z,32.7
2023-02-22T11:50:35.879Z,32.7
2023-02-22T11:56:42.677Z,32.7
2023-02-22T12:02:59.581Z,32.7
2023-02-22T12:09:04.784Z,32.6
2023-02-22T12:15:10.451Z,32.6
2023-02-22T12:21:15.882Z,32.7
2023-02-22T12:27:22.077Z,32.8
2023-02-22T12:33:27.056Z,32.7
2023-02-22T12:39:50.927Z,32.7
2023-02-22T12:45:57.774Z,32.7
2023-02-22T12:52:23.822Z,32.7
2023-02-22T12:58:29.207Z,32.7
2023-02-22T13:04:34.237Z,32.7
2023-02-22T13:10:39.379Z,32.6
2023-02-22T13:16:44.736Z,32.7
2023-02-22T13:22:50.763Z,32.7
2023-02-22T13:28:55.713Z,32.7
2023-02-22T13:35:01.458Z,32.7
2023-02-22T13:41:07.175Z,32.7
2023-02-22T13:47:12.570Z,32.8
2023-02-22T13:53:18.322Z,32.8
2023-02-22T13:59:23.679Z,32.8
2023-02-22T14:05:32.130Z,32.8
2023-02-22T14:11:37.971Z,32.8
2023-02-22T14:17:43.363Z,32.8
2023-02-22T14:23:49.104Z,32.9
2023-02-22T14:29:53.769Z,32.8
2023-02-22T14:35:58.991Z,32.8
2023-02-22T14:42:04.976Z,32.8
2023-02-22T14:48:10.301Z,32.8
2023-02-22T14:54:15.928Z,32.8
2023-02-22T15:00:21.707Z,32.8
2023-02-22T15:06:26.908Z,32.8
2023-02-22T15:12:31.638Z,32.9
2023-02-22T15:18:36.747Z,32.9
2023-02-22T15:24:41.773Z,32.9
2023-02-22T15:30:46.747Z,32.9
2023-02-22T15:36:52.070Z,33
2023-02-22T15:42:57.857Z,33
2023-02-22T15:49:03.029Z,33
2023-02-22T15:55:08.166Z,33
2023-02-22T16:01:13.184Z,33
2023-02-22T16:07:19.112Z,33
2023-02-22T16:13:34.542Z,33
2023-02-22T16:19:43.886Z,33.1
2023-02-22T16:25:48.552Z,33.1
2023-02-22T16:31:54.377Z,33.1
2023-02-22T16:37:59.411Z,33.1
2023-02-22T16:44:04.793Z,33.1
2023-02-22T16:50:09.585Z,33.1
2023-02-22T16:56:15.539Z,33.1
2023-02-22T17:02:20.957Z,33.1
2023-02-22T17:08:25.925Z,33.2
2023-02-22T17:14:30.991Z,33.2
2023-02-22T17:20:36.626Z,33.3
2023-02-22T17:26:42.203Z,33.3
2023-02-22T17:32:47.559Z,33.3
2023-02-22T17:38:53.345Z,33.4
2023-02-22T17:44:58.665Z,33.4
2023-02-22T17:51:04.008Z,33.5
2023-02-22T17:57:09.046Z,33.5
2023-02-22T18:03:15.070Z,33.6
2023-02-22T18:09:21.092Z,33.6
2023-02-22T18:15:26.695Z,33.7
2023-02-22T18:21:31.968Z,33.7
2023-02-22T18:27:37.446Z,33.7
2023-02-22T18:33:42.799Z,33.9
2023-02-22T18:39:48.235Z,33.8
2023-02-22T18:45:53.595Z,33.8
2023-02-22T18:51:58.757Z,33.9
2023-02-22T18:58:03.962Z,33.9
2023-02-22T19:04:09.132Z,34
2023-02-22T19:10:14.180Z,34
2023-02-22T19:16:21.186Z,34
2023-02-22T19:22:27.464Z,34.1
2023-02-22T19:28:33.218Z,34.1
2023-02-22T19:34:38.610Z,34.2
2023-02-22T19:40:43.750Z,34.1
2023-02-22T19:46:50.978Z,34.2
2023-02-22T19:52:56.663Z,34.1
2023-02-22T19:59:01.904Z,34.1
2023-02-22T20:05:07.317Z,34.2
2023-02-22T20:11:12.354Z,34.2
2023-02-22T20:17:17.746Z,34.2
2023-02-22T20:23:22.947Z,34.2
2023-02-22T20:29:27.930Z,34.2
2023-02-22T20:35:33.103Z,34.3
2023-02-22T20:41:39.050Z,34.3
2023-02-22T20:47:44.631Z,34.3
2023-02-22T20:53:50.008Z,34.5
2023-02-22T20:59:55.521Z,34.4
2023-02-22T21:06:01.353Z,34.6
2023-02-22T21:12:06.307Z,34.5
2023-02-22T21:18:12.104Z,34.6
2023-02-22T21:24:17.472Z,34.6
2023-02-22T21:30:23.178Z,34.6
2023-02-22T21:36:28.934Z,34.7
2023-02-22T21:42:33.987Z,34.7
2023-02-22T21:48:39.878Z,34.7
2023-02-22T21:54:45.141Z,34.8
2023-02-22T22:00:49.887Z,34.8
2023-02-22T22:06:55.264Z,34.9
2023-02-22T22:13:00.752Z,34.9
2023-02-22T22:19:06.781Z,34.9
2023-02-22T22:25:11.718Z,34.9
2023-02-22T22:31:18.354Z,34.9
2023-02-22T22:37:23.477Z,35
2023-02-22T22:43:28.684Z,35
2023-02-22T22:49:34.793Z,35
2023-02-22T22:55:40.402Z,35
2023-02-22T23:01:45.370Z,35.1
2023-02-22T23:07:51.142Z,35.2
2023-02-22T23:13:56.691Z,35.1
2023-02-22T23:20:02.312Z,35.1
2023-02-22T23:26:07.875Z,35.1
2023-02-22T23:32:14.523Z,35.1
2023-02-22T23:38:19.647Z,35.3
2023-02-22T23:44:24.373Z,35.2
2023-02-22T23:50:29.338Z,35.2
2023-02-22T23:56:34.902Z,35.3
